sensor_id;sensor_type;location;lat;lon;timestamp;pressure;altitude;pressure_sealevel;temperature;humidity
30110;BME280;14965;50.660;13.226;2023-05-18T00:01:27;95676.03;;;4.42;86.40
30110;BME280;14965;50.660;13.226;2023-05-18T00:03:55;95682.28;;;4.42;86.71
30110;BME280;14965;50.660;13.226;2023-05-18T00:06:21;95687.41;;;4.44;86.83
30110;BME280;14965;50.660;13.226;2023-05-18T00:08:47;95682.31;;;4.46;86.37
30110;BME280;14965;50.660;13.226;2023-05-18T00:11:13;95693.63;;;4.41;86.23
30110;BME280;14965;50.660;13.226;2023-05-18T00:13:39;95688.13;;;4.37;86.18
30110;BME280;14965;50.660;13.226;2023-05-18T00:16:05;95690.78;;;4.30;86.22
30110;BME280;14965;50.660;13.226;2023-05-18T00:18:31;95686.84;;;4.24;86.35
30110;BME280;14965;50.660;13.226;2023-05-18T00:20:59;95693.03;;;4.21;86.07
30110;BME280;14965;50.660;13.226;2023-05-18T00:23:26;95691.06;;;4.18;85.86
30110;BME280;14965;50.660;13.226;2023-05-18T00:25:52;95690.63;;;4.12;85.84
30110;BME280;14965;50.660;13.226;2023-05-18T00:28:18;95687.81;;;4.05;86.10
30110;BME280;14965;50.660;13.226;2023-05-18T00:30:44;95698.31;;;3.99;86.30
30110;BME280;14965;50.660;13.226;2023-05-18T00:33:10;95693.56;;;3.93;86.28
30110;BME280;14965;50.660;13.226;2023-05-18T00:35:36;95689.66;;;3.90;86.65
30110;BME280;14965;50.660;13.226;2023-05-18T00:38:04;95693.91;;;3.88;86.59
30110;BME280;14965;50.660;13.226;2023-05-18T00:40:30;95691.94;;;3.85;86.86
30110;BME280;14965;50.660;13.226;2023-05-18T00:42:56;95698.16;;;3.82;86.49
30110;BME280;14965;50.660;13.226;2023-05-18T00:45:22;95694.94;;;3.76;86.63
30110;BME280;14965;50.660;13.226;2023-05-18T00:47:48;95707.41;;;3.73;87.01
30110;BME280;14965;50.660;13.226;2023-05-18T00:50:14;95712.44;;;3.68;86.78
30110;BME280;14965;50.660;13.226;2023-05-18T00:52:41;95706.16;;;3.67;87.27
30110;BME280;14965;50.660;13.226;2023-05-18T00:55:11;95713.22;;;3.68;87.64
30110;BME280;14965;50.660;13.226;2023-05-18T00:57:38;95713.22;;;3.68;87.57
30110;BME280;14965;50.660;13.226;2023-05-18T01:00:06;95708.88;;;3.64;87.34
30110;BME280;14965;50.660;13.226;2023-05-18T01:02:32;95711.16;;;3.58;87.16
30110;BME280;14965;50.660;13.226;2023-05-18T01:04:58;95715.78;;;3.54;87.05
30110;BME280;14965;50.660;13.226;2023-05-18T01:07:24;95714.94;;;3.50;87.15
30110;BME280;14965;50.660;13.226;2023-05-18T01:09:51;95712.16;;;3.46;87.23
30110;BME280;14965;50.660;13.226;2023-05-18T01:12:24;95712.50;;;3.41;87.41
30110;BME280;14965;50.660;13.226;2023-05-18T01:15:02;95712.06;;;3.36;87.31
30110;BME280;14965;50.660;13.226;2023-05-18T01:17:45;95708.50;;;3.32;86.93
30110;BME280;14965;50.660;13.226;2023-05-18T01:20:27;95722.03;;;3.24;87.01
30110;BME280;14965;50.660;13.226;2023-05-18T01:23:15;95718.13;;;3.22;87.42
30110;BME280;14965;50.660;13.226;2023-05-18T01:25:49;95721.63;;;3.22;87.57
30110;BME280;14965;50.660;13.226;2023-05-18T01:28:24;95718.91;;;3.22;87.67
30110;BME280;14965;50.660;13.226;2023-05-18T01:30:51;95716.97;;;3.23;87.93
30110;BME280;14965;50.660;13.226;2023-05-18T01:33:17;95714.97;;;3.20;87.64
30110;BME280;14965;50.660;13.226;2023-05-18T01:35:43;95723.88;;;3.17;87.32
30110;BME280;14965;50.660;13.226;2023-05-18T01:38:09;95717.97;;;3.11;87.61
30110;BME280;14965;50.660;13.226;2023-05-18T01:40:47;95715.56;;;3.06;87.24
30110;BME280;14965;50.660;13.226;2023-05-18T01:43:20;95719.81;;;3.04;87.95
30110;BME280;14965;50.660;13.226;2023-05-18T01:45:54;95719.41;;;3.02;87.37
30110;BME280;14965;50.660;13.226;2023-05-18T01:48:24;95721.34;;;3.01;87.44
30110;BME280;14965;50.660;13.226;2023-05-18T01:50:54;95713.94;;;3.02;88.18
30110;BME280;14965;50.660;13.226;2023-05-18T01:53:27;95711.16;;;2.98;87.35
30110;BME280;14965;50.660;13.226;2023-05-18T01:55:58;95716.94;;;2.93;87.02
30110;BME280;14965;50.660;13.226;2023-05-18T01:58:27;95729.31;;;2.87;87.63
30110;BME280;14965;50.660;13.226;2023-05-18T02:00:54;95709.75;;;2.81;87.43
30110;BME280;14965;50.660;13.226;2023-05-18T02:03:20;95722.91;;;2.75;87.48
30110;BME280;14965;50.660;13.226;2023-05-18T02:05:46;95727.97;;;2.73;87.17
30110;BME280;14965;50.660;13.226;2023-05-18T02:08:12;95728.34;;;2.72;87.20
30110;BME280;14965;50.660;13.226;2023-05-18T02:10:38;95726.75;;;2.71;87.45
30110;BME280;14965;50.660;13.226;2023-05-18T02:13:04;95728.69;;;2.70;87.41
30110;BME280;14965;50.660;13.226;2023-05-18T02:15:32;95729.06;;;2.69;87.65
30110;BME280;14965;50.660;13.226;2023-05-18T02:17:57;95727.84;;;2.66;87.25
30110;BME280;14965;50.660;13.226;2023-05-18T02:20:24;95729.72;;;2.62;86.78
30110;BME280;14965;50.660;13.226;2023-05-18T02:22:50;95726.16;;;2.58;87.52
30110;BME280;14965;50.660;13.226;2023-05-18T02:25:15;95716.00;;;2.55;87.13
30110;BME280;14965;50.660;13.226;2023-05-18T02:27:41;95720.59;;;2.51;87.29
30110;BME280;14965;50.660;13.226;2023-05-18T02:30:09;95717.03;;;2.47;87.23
30110;BME280;14965;50.660;13.226;2023-05-18T02:32:36;95713.03;;;2.41;87.42
30110;BME280;14965;50.660;13.226;2023-05-18T02:35:04;95717.63;;;2.37;87.00
30110;BME280;14965;50.660;13.226;2023-05-18T02:37:30;95716.00;;;2.32;87.10
30110;BME280;14965;50.660;13.226;2023-05-18T02:39:56;95724.84;;;2.25;86.80
30110;BME280;14965;50.660;13.226;2023-05-18T02:42:22;95720.94;;;2.23;87.23
30110;BME280;14965;50.660;13.226;2023-05-18T02:44:48;95722.44;;;2.20;87.50
30110;BME280;14965;50.660;13.226;2023-05-18T02:47:14;95721.66;;;2.20;87.19
30110;BME280;14965;50.660;13.226;2023-05-18T02:49:41;95725.16;;;2.20;87.98
30110;BME280;14965;50.660;13.226;2023-05-18T02:52:07;95725.09;;;2.17;87.79
30110;BME280;14965;50.660;13.226;2023-05-18T02:54:33;95724.69;;;2.15;87.89
30110;BME280;14965;50.660;13.226;2023-05-18T02:56:58;95727.72;;;2.10;87.28
30110;BME280;14965;50.660;13.226;2023-05-18T02:59:24;95724.13;;;2.06;87.42
30110;BME280;14965;50.660;13.226;2023-05-18T03:01:51;95721.28;;;1.98;87.46
30110;BME280;14965;50.660;13.226;2023-05-18T03:04:17;95728.22;;;1.96;87.65
30110;BME280;14965;50.660;13.226;2023-05-18T03:06:44;95730.91;;;1.92;87.20
30110;BME280;14965;50.660;13.226;2023-05-18T03:09:10;95727.75;;;1.90;87.40
30110;BME280;14965;50.660;13.226;2023-05-18T03:11:36;95731.97;;;1.88;87.24
30110;BME280;14965;50.660;13.226;2023-05-18T03:14:02;95726.88;;;1.86;87.30
30110;BME280;14965;50.660;13.226;2023-05-18T03:16:28;95731.56;;;1.86;87.39
30110;BME280;14965;50.660;13.226;2023-05-18T03:18:54;95737.72;;;1.83;87.59
30110;BME280;14965;50.660;13.226;2023-05-18T03:21:20;95739.28;;;1.84;87.81
30110;BME280;14965;50.660;13.226;2023-05-18T03:23:48;95737.00;;;1.86;87.73
30110;BME280;14965;50.660;13.226;2023-05-18T03:26:14;95734.69;;;1.88;87.25
30110;BME280;14965;50.660;13.226;2023-05-18T03:28:40;95740.19;;;1.91;87.79
30110;BME280;14965;50.660;13.226;2023-05-18T03:31:06;95737.13;;;1.93;87.86
30110;BME280;14965;50.660;13.226;2023-05-18T03:33:32;95733.63;;;1.92;87.40
30110;BME280;14965;50.660;13.226;2023-05-18T03:36:03;95743.38;;;1.93;87.66
30110;BME280;14965;50.660;13.226;2023-05-18T03:38:29;95744.56;;;1.96;87.37
30110;BME280;14965;50.660;13.226;2023-05-18T03:40:56;95740.72;;;1.97;87.15
30110;BME280;14965;50.660;13.226;2023-05-18T03:43:23;95746.09;;;1.93;87.13
30110;BME280;14965;50.660;13.226;2023-05-18T03:45:49;95751.53;;;1.93;86.62
30110;BME280;14965;50.660;13.226;2023-05-18T03:48:15;95749.16;;;1.92;87.02
30110;BME280;14965;50.660;13.226;2023-05-18T03:50:41;95746.03;;;1.90;86.71
30110;BME280;14965;50.660;13.226;2023-05-18T03:53:07;95749.16;;;1.92;87.21
30110;BME280;14965;50.660;13.226;2023-05-18T03:55:32;95746.88;;;1.94;87.19
30110;BME280;14965;50.660;13.226;2023-05-18T03:58:00;95750.88;;;2.00;87.23
30110;BME280;14965;50.660;13.226;2023-05-18T04:00:26;95756.09;;;2.09;86.91
30110;BME280;14965;50.660;13.226;2023-05-18T04:02:52;95748.91;;;2.20;86.33
30110;BME280;14965;50.660;13.226;2023-05-18T04:05:18;95755.25;;;2.28;86.70
30110;BME280;14965;50.660;13.226;2023-05-18T04:07:44;95758.53;;;2.37;85.59
30110;BME280;14965;50.660;13.226;2023-05-18T04:10:10;95764.88;;;2.44;85.88
30110;BME280;14965;50.660;13.226;2023-05-18T04:12:37;95763.13;;;2.56;85.31
30110;BME280;14965;50.660;13.226;2023-05-18T04:15:07;95752.69;;;2.61;84.72
30110;BME280;14965;50.660;13.226;2023-05-18T04:17:33;95759.47;;;2.71;84.70
30110;BME280;14965;50.660;13.226;2023-05-18T04:19:58;95755.03;;;2.86;84.50
30110;BME280;14965;50.660;13.226;2023-05-18T04:22:24;95768.88;;;3.00;84.01
30110;BME280;14965;50.660;13.226;2023-05-18T04:24:50;95772.34;;;3.23;83.31
30110;BME280;14965;50.660;13.226;2023-05-18T04:27:16;95771.06;;;4.11;81.37
30110;BME280;14965;50.660;13.226;2023-05-18T04:29:42;95758.53;;;5.68;75.33
30110;BME280;14965;50.660;13.226;2023-05-18T04:32:09;95756.44;;;7.31;67.49
30110;BME280;14965;50.660;13.226;2023-05-18T04:34:36;95756.19;;;8.72;60.69
30110;BME280;14965;50.660;13.226;2023-05-18T04:37:02;95747.91;;;9.96;56.08
30110;BME280;14965;50.660;13.226;2023-05-18T04:39:28;95757.41;;;11.07;52.19
30110;BME280;14965;50.660;13.226;2023-05-18T04:41:54;95749.00;;;12.01;49.13
30110;BME280;14965;50.660;13.226;2023-05-18T04:44:20;95760.78;;;12.61;47.26
30110;BME280;14965;50.660;13.226;2023-05-18T04:46:46;95752.50;;;12.94;46.42
30110;BME280;14965;50.660;13.226;2023-05-18T04:49:13;95749.38;;;13.57;44.79
30110;BME280;14965;50.660;13.226;2023-05-18T04:51:39;95748.38;;;14.09;43.46
30110;BME280;14965;50.660;13.226;2023-05-18T04:54:05;95745.03;;;14.56;42.17
30110;BME280;14965;50.660;13.226;2023-05-18T04:56:31;95751.38;;;14.95;40.86
30110;BME280;14965;50.660;13.226;2023-05-18T04:58:57;95741.13;;;15.30;40.25
30110;BME280;14965;50.660;13.226;2023-05-18T05:01:23;95740.94;;;15.59;39.56
30110;BME280;14965;50.660;13.226;2023-05-18T05:03:49;95741.06;;;15.90;39.23
30110;BME280;14965;50.660;13.226;2023-05-18T05:06:16;95740.59;;;16.36;38.49
30110;BME280;14965;50.660;13.226;2023-05-18T05:08:42;95742.03;;;16.72;37.42
30110;BME280;14965;50.660;13.226;2023-05-18T05:11:08;95742.47;;;17.01;37.08
30110;BME280;14965;50.660;13.226;2023-05-18T05:13:34;95738.47;;;17.02;36.69
30110;BME280;14965;50.660;13.226;2023-05-18T05:16:00;95742.28;;;17.27;36.13
30110;BME280;14965;50.660;13.226;2023-05-18T05:18:26;95751.78;;;17.57;35.77
30110;BME280;14965;50.660;13.226;2023-05-18T05:20:53;95741.00;;;17.86;35.36
30110;BME280;14965;50.660;13.226;2023-05-18T05:23:20;95745.03;;;17.95;35.14
30110;BME280;14965;50.660;13.226;2023-05-18T05:25:46;95739.75;;;17.78;35.69
30110;BME280;14965;50.660;13.226;2023-05-18T05:28:12;95746.72;;;17.83;35.54
30110;BME280;14965;50.660;13.226;2023-05-18T05:30:38;95753.56;;;18.19;35.37
30110;BME280;14965;50.660;13.226;2023-05-18T05:33:05;95744.50;;;18.42;34.75
30110;BME280;14965;50.660;13.226;2023-05-18T05:35:31;95735.00;;;18.58;34.96
30110;BME280;14965;50.660;13.226;2023-05-18T05:37:57;95742.91;;;18.78;34.61
30110;BME280;14965;50.660;13.226;2023-05-18T05:40:24;95743.13;;;18.98;34.29
30110;BME280;14965;50.660;13.226;2023-05-18T05:42:50;95744.50;;;19.36;33.72
30110;BME280;14965;50.660;13.226;2023-05-18T05:45:16;95750.88;;;19.36;33.69
30110;BME280;14965;50.660;13.226;2023-05-18T05:47:42;95749.47;;;19.41;34.04
30110;BME280;14965;50.660;13.226;2023-05-18T05:50:09;95737.91;;;19.48;33.78
30110;BME280;14965;50.660;13.226;2023-05-18T05:52:35;95743.50;;;19.48;33.29
30110;BME280;14965;50.660;13.226;2023-05-18T05:55:00;95753.31;;;19.44;33.64
30110;BME280;14965;50.660;13.226;2023-05-18T05:57:28;95749.28;;;19.45;33.51
30110;BME280;14965;50.660;13.226;2023-05-18T05:59:54;95747.72;;;19.44;34.15
30110;BME280;14965;50.660;13.226;2023-05-18T06:02:20;95755.13;;;19.56;33.29
30110;BME280;14965;50.660;13.226;2023-05-18T06:04:45;95753.50;;;19.40;33.61
30110;BME280;14965;50.660;13.226;2023-05-18T06:07:11;95753.03;;;19.08;33.38
30110;BME280;14965;50.660;13.226;2023-05-18T06:09:37;95753.69;;;18.33;34.49
30110;BME280;14965;50.660;13.226;2023-05-18T06:12:04;95758.34;;;18.36;35.21
30110;BME280;14965;50.660;13.226;2023-05-18T06:14:31;95748.06;;;18.61;35.30
30110;BME280;14965;50.660;13.226;2023-05-18T06:16:57;95767.63;;;18.61;34.75
30110;BME280;14965;50.660;13.226;2023-05-18T06:19:23;95760.31;;;18.73;33.94
30110;BME280;14965;50.660;13.226;2023-05-18T06:21:49;95772.03;;;17.88;32.71
30110;BME280;14965;50.660;13.226;2023-05-18T06:24:15;95761.72;;;16.46;35.03
30110;BME280;14965;50.660;13.226;2023-05-18T06:26:41;95768.81;;;15.21;38.08
30110;BME280;14965;50.660;13.226;2023-05-18T06:29:07;95769.97;;;14.98;39.25
30110;BME280;14965;50.660;13.226;2023-05-18T06:31:34;95777.75;;;15.03;38.77
30110;BME280;14965;50.660;13.226;2023-05-18T06:34:00;95771.22;;;14.30;39.53
30110;BME280;14965;50.660;13.226;2023-05-18T06:36:26;95782.31;;;14.30;40.03
30110;BME280;14965;50.660;13.226;2023-05-18T06:38:52;95781.34;;;14.07;40.82
30110;BME280;14965;50.660;13.226;2023-05-18T06:41:18;95782.75;;;14.28;40.82
30110;BME280;14965;50.660;13.226;2023-05-18T06:43:44;95785.28;;;14.23;41.00
30110;BME280;14965;50.660;13.226;2023-05-18T06:46:18;95778.53;;;14.91;40.03
30110;BME280;14965;50.660;13.226;2023-05-18T06:48:46;95776.47;;;15.68;38.54
30110;BME280;14965;50.660;13.226;2023-05-18T06:51:12;95787.19;;;16.13;37.59
30110;BME280;14965;50.660;13.226;2023-05-18T06:53:38;95788.94;;;15.38;38.52
30110;BME280;14965;50.660;13.226;2023-05-18T06:56:04;95784.28;;;14.58;40.15
30110;BME280;14965;50.660;13.226;2023-05-18T06:58:30;95795.31;;;14.33;40.86
30110;BME280;14965;50.660;13.226;2023-05-18T07:00:56;95799.81;;;13.85;42.48
30110;BME280;14965;50.660;13.226;2023-05-18T07:03:22;95799.81;;;13.03;43.75
30110;BME280;14965;50.660;13.226;2023-05-18T07:05:49;95797.97;;;11.84;46.84
30110;BME280;14965;50.660;13.226;2023-05-18T07:08:15;95813.31;;;11.42;48.05
30110;BME280;14965;50.660;13.226;2023-05-18T07:10:41;95805.06;;;11.62;47.70
30110;BME280;14965;50.660;13.226;2023-05-18T07:13:07;95794.78;;;12.06;46.92
30110;BME280;14965;50.660;13.226;2023-05-18T07:15:33;95802.09;;;12.36;46.24
30110;BME280;14965;50.660;13.226;2023-05-18T07:18:03;95803.91;;;11.83;47.65
30110;BME280;14965;50.660;13.226;2023-05-18T07:20:29;95809.59;;;11.29;48.51
30110;BME280;14965;50.660;13.226;2023-05-18T07:22:57;95811.56;;;11.05;49.88
30110;BME280;14965;50.660;13.226;2023-05-18T07:25:25;95798.03;;;11.10;49.50
30110;BME280;14965;50.660;13.226;2023-05-18T07:27:52;95804.94;;;11.69;49.55
30110;BME280;14965;50.660;13.226;2023-05-18T07:30:19;95796.84;;;11.58;48.58
30110;BME280;14965;50.660;13.226;2023-05-18T07:32:44;95800.56;;;11.48;48.42
30110;BME280;14965;50.660;13.226;2023-05-18T07:35:11;95796.00;;;11.14;48.79
30110;BME280;14965;50.660;13.226;2023-05-18T07:37:37;95797.47;;;10.68;49.01
30110;BME280;14965;50.660;13.226;2023-05-18T07:40:07;95797.63;;;10.85;48.61
30110;BME280;14965;50.660;13.226;2023-05-18T07:42:33;95789.00;;;11.53;49.07
30110;BME280;14965;50.660;13.226;2023-05-18T07:44:59;95797.38;;;12.16;47.21
30110;BME280;14965;50.660;13.226;2023-05-18T07:47:41;95806.88;;;11.25;47.27
30110;BME280;14965;50.660;13.226;2023-05-18T07:50:17;95813.47;;;10.19;48.76
30110;BME280;14965;50.660;13.226;2023-05-18T07:52:48;95807.91;;;9.89;50.70
30110;BME280;14965;50.660;13.226;2023-05-18T07:55:16;95806.84;;;10.13;49.98
30110;BME280;14965;50.660;13.226;2023-05-18T07:57:42;95804.78;;;10.21;50.72
30110;BME280;14965;50.660;13.226;2023-05-18T08:00:12;95802.81;;;10.21;51.25
30110;BME280;14965;50.660;13.226;2023-05-18T08:02:47;95831.69;;;10.13;50.99
30110;BME280;14965;50.660;13.226;2023-05-18T08:05:20;95807.47;;;9.94;51.03
30110;BME280;14965;50.660;13.226;2023-05-18T08:07:55;95795.72;;;10.20;51.40
30110;BME280;14965;50.660;13.226;2023-05-18T08:10:23;95800.81;;;10.56;50.59
30110;BME280;14965;50.660;13.226;2023-05-18T08:12:49;95795.94;;;10.91;48.46
30110;BME280;14965;50.660;13.226;2023-05-18T08:15:23;95797.69;;;11.08;49.21
30110;BME280;14965;50.660;13.226;2023-05-18T08:20:29;95793.22;;;11.61;47.62
30110;BME280;14965;50.660;13.226;2023-05-18T08:22:55;95794.84;;;11.59;47.75
30110;BME280;14965;50.660;13.226;2023-05-18T08:25:24;95802.81;;;11.33;47.28
30110;BME280;14965;50.660;13.226;2023-05-18T08:27:50;95801.81;;;10.96;48.84
30110;BME280;14965;50.660;13.226;2023-05-18T08:30:16;95804.13;;;10.98;48.16
30110;BME280;14965;50.660;13.226;2023-05-18T08:32:42;95808.38;;;10.79;47.96
30110;BME280;14965;50.660;13.226;2023-05-18T08:35:09;95795.56;;;10.35;48.61
30110;BME280;14965;50.660;13.226;2023-05-18T08:37:35;95800.38;;;10.27;50.45
30110;BME280;14965;50.660;13.226;2023-05-18T08:40:06;95814.06;;;10.38;49.59
30110;BME280;14965;50.660;13.226;2023-05-18T08:42:50;95804.88;;;10.14;50.10
30110;BME280;14965;50.660;13.226;2023-05-18T08:45:31;95799.19;;;9.94;49.87
30110;BME280;14965;50.660;13.226;2023-05-18T08:47:59;95804.88;;;9.80;50.90
30110;BME280;14965;50.660;13.226;2023-05-18T08:50:31;95800.84;;;9.88;51.62
30110;BME280;14965;50.660;13.226;2023-05-18T08:53:04;95803.81;;;10.04;51.76
30110;BME280;14965;50.660;13.226;2023-05-18T08:55:34;95804.78;;;10.21;52.46
30110;BME280;14965;50.660;13.226;2023-05-18T08:58:06;95805.16;;;10.23;50.09
30110;BME280;14965;50.660;13.226;2023-05-18T09:00:43;95806.06;;;10.13;50.90
30110;BME280;14965;50.660;13.226;2023-05-18T09:03:33;95802.88;;;10.14;51.15
30110;BME280;14965;50.660;13.226;2023-05-18T09:06:00;95802.34;;;10.30;52.38
30110;BME280;14965;50.660;13.226;2023-05-18T09:08:28;95791.59;;;10.36;51.71
30110;BME280;14965;50.660;13.226;2023-05-18T09:10:56;95791.28;;;10.30;50.38
30110;BME280;14965;50.660;13.226;2023-05-18T09:13:27;95798.75;;;9.99;50.90
30110;BME280;14965;50.660;13.226;2023-05-18T09:15:54;95786.44;;;9.69;52.46
30110;BME280;14965;50.660;13.226;2023-05-18T09:18:52;95793.53;;;9.70;53.88
30110;BME280;14965;50.660;13.226;2023-05-18T09:21:41;95789.25;;;9.66;53.43
30110;BME280;14965;50.660;13.226;2023-05-18T09:24:47;95787.66;;;9.65;53.26
30110;BME280;14965;50.660;13.226;2023-05-18T09:27:17;95788.78;;;9.75;53.14
30110;BME280;14965;50.660;13.226;2023-05-18T09:29:58;95795.03;;;9.79;52.49
30110;BME280;14965;50.660;13.226;2023-05-18T09:33:01;95801.50;;;9.99;52.61
30110;BME280;14965;50.660;13.226;2023-05-18T09:35:58;95792.06;;;9.96;52.38
30110;BME280;14965;50.660;13.226;2023-05-18T09:38:45;95799.91;;;9.98;52.49
30110;BME280;14965;50.660;13.226;2023-05-18T10:07:32;95786.47;;;10.92;48.89
30110;BME280;14965;50.660;13.226;2023-05-18T10:10:04;95785.13;;;11.04;50.21
30110;BME280;14965;50.660;13.226;2023-05-18T10:18:36;95786.19;;;11.10;48.57
30110;BME280;14965;50.660;13.226;2023-05-18T10:21:05;95781.47;;;11.34;48.80
30110;BME280;14965;50.660;13.226;2023-05-18T10:23:35;95782.63;;;11.56;49.04
30110;BME280;14965;50.660;13.226;2023-05-18T10:26:05;95776.72;;;11.78;47.46
30110;BME280;14965;50.660;13.226;2023-05-18T10:28:40;95773.53;;;11.79;46.55
30110;BME280;14965;50.660;13.226;2023-05-18T10:31:07;95778.31;;;11.55;48.62
30110;BME280;14965;50.660;13.226;2023-05-18T10:33:36;95775.66;;;11.48;48.73
30110;BME280;14965;50.660;13.226;2023-05-18T10:36:04;95776.81;;;11.51;48.62
30110;BME280;14965;50.660;13.226;2023-05-18T10:38:36;95779.97;;;11.29;48.06
30110;BME280;14965;50.660;13.226;2023-05-18T10:41:05;95763.44;;;11.26;47.99
30110;BME280;14965;50.660;13.226;2023-05-18T10:43:33;95754.28;;;11.72;48.95
30110;BME280;14965;50.660;13.226;2023-05-18T10:46:01;95759.66;;;12.03;48.53
30110;BME280;14965;50.660;13.226;2023-05-18T10:48:28;95754.81;;;12.07;46.61
30110;BME280;14965;50.660;13.226;2023-05-18T10:50:56;95757.69;;;11.83;46.66
30110;BME280;14965;50.660;13.226;2023-05-18T10:53:25;95763.72;;;11.55;48.46
30110;BME280;14965;50.660;13.226;2023-05-18T10:55:53;95755.66;;;11.40;48.96
30110;BME280;14965;50.660;13.226;2023-05-18T10:58:22;95748.84;;;11.45;47.92
30110;BME280;14965;50.660;13.226;2023-05-18T11:00:54;95760.88;;;11.35;47.77
30110;BME280;14965;50.660;13.226;2023-05-18T11:03:20;95755.94;;;10.99;48.43
30110;BME280;14965;50.660;13.226;2023-05-18T11:06:02;95747.91;;;11.08;48.49
30110;BME280;14965;50.660;13.226;2023-05-18T11:08:28;95757.22;;;11.18;47.71
30110;BME280;14965;50.660;13.226;2023-05-18T11:11:04;95746.34;;;11.54;48.26
30110;BME280;14965;50.660;13.226;2023-05-18T11:13:31;95740.91;;;12.10;47.27
30110;BME280;14965;50.660;13.226;2023-05-18T11:16:08;95744.75;;;12.53;46.93
30110;BME280;14965;50.660;13.226;2023-05-18T11:18:44;95743.59;;;12.34;46.10
30110;BME280;14965;50.660;13.226;2023-05-18T11:21:30;95745.63;;;11.70;46.59
30110;BME280;14965;50.660;13.226;2023-05-18T11:24:22;95738.81;;;11.55;47.94
30110;BME280;14965;50.660;13.226;2023-05-18T11:26:52;95741.34;;;11.65;47.39
30110;BME280;14965;50.660;13.226;2023-05-18T11:29:22;95741.94;;;11.77;46.94
30110;BME280;14965;50.660;13.226;2023-05-18T11:31:51;95750.94;;;11.84;48.37
30110;BME280;14965;50.660;13.226;2023-05-18T11:34:41;95736.22;;;12.07;47.49
30110;BME280;14965;50.660;13.226;2023-05-18T11:37:08;95742.25;;;12.22;47.71
30110;BME280;14965;50.660;13.226;2023-05-18T11:39:34;95734.84;;;12.15;47.12
30110;BME280;14965;50.660;13.226;2023-05-18T11:42:06;95726.50;;;11.99;47.97
30110;BME280;14965;50.660;13.226;2023-05-18T11:44:32;95731.47;;;11.88;48.29
30110;BME280;14965;50.660;13.226;2023-05-18T11:47:04;95737.78;;;11.88;48.99
30110;BME280;14965;50.660;13.226;2023-05-18T11:49:32;95739.19;;;11.77;48.48
30110;BME280;14965;50.660;13.226;2023-05-18T11:52:05;95749.34;;;11.40;48.98
30110;BME280;14965;50.660;13.226;2023-05-18T11:54:43;95752.47;;;11.18;49.38
30110;BME280;14965;50.660;13.226;2023-05-18T11:57:12;95742.09;;;11.26;49.21
30110;BME280;14965;50.660;13.226;2023-05-18T11:59:41;95745.25;;;11.48;48.84
30110;BME280;14965;50.660;13.226;2023-05-18T12:02:09;95745.44;;;11.37;49.38
30110;BME280;14965;50.660;13.226;2023-05-18T12:04:50;95747.50;;;11.53;48.73
30110;BME280;14965;50.660;13.226;2023-05-18T12:07:17;95738.75;;;11.78;49.13
30110;BME280;14965;50.660;13.226;2023-05-18T12:09:45;95742.97;;;12.06;48.25
30110;BME280;14965;50.660;13.226;2023-05-18T12:12:15;95744.53;;;12.07;47.35
30110;BME280;14965;50.660;13.226;2023-05-18T12:14:42;95747.38;;;11.84;48.61
30110;BME280;14965;50.660;13.226;2023-05-18T12:17:09;95743.72;;;11.67;47.94
30110;BME280;14965;50.660;13.226;2023-05-18T12:19:43;95737.47;;;11.63;50.31
30110;BME280;14965;50.660;13.226;2023-05-18T12:22:10;95735.13;;;11.81;48.27
30110;BME280;14965;50.660;13.226;2023-05-18T12:24:37;95731.81;;;11.90;47.95
30110;BME280;14965;50.660;13.226;2023-05-18T12:27:05;95727.38;;;11.96;48.94
30110;BME280;14965;50.660;13.226;2023-05-18T12:29:36;95729.75;;;12.14;47.04
30110;BME280;14965;50.660;13.226;2023-05-18T12:32:08;95723.66;;;12.23;47.48
30110;BME280;14965;50.660;13.226;2023-05-18T12:34:35;95730.59;;;12.31;47.98
30110;BME280;14965;50.660;13.226;2023-05-18T12:37:02;95730.22;;;12.29;47.29
30110;BME280;14965;50.660;13.226;2023-05-18T12:39:30;95723.44;;;12.33;48.59
30110;BME280;14965;50.660;13.226;2023-05-18T12:42:09;95722.53;;;12.36;48.95
30110;BME280;14965;50.660;13.226;2023-05-18T12:44:37;95728.13;;;12.16;46.82
30110;BME280;14965;50.660;13.226;2023-05-18T12:47:04;95733.03;;;11.89;46.71
30110;BME280;14965;50.660;13.226;2023-05-18T12:49:36;95721.69;;;11.83;46.62
30110;BME280;14965;50.660;13.226;2023-05-18T12:52:09;95730.16;;;11.72;46.12
30110;BME280;14965;50.660;13.226;2023-05-18T12:54:35;95714.09;;;11.87;48.37
30110;BME280;14965;50.660;13.226;2023-05-18T12:57:05;95716.19;;;12.19;47.50
30110;BME280;14965;50.660;13.226;2023-05-18T12:59:31;95721.56;;;12.27;46.28
30110;BME280;14965;50.660;13.226;2023-05-18T13:01:58;95730.84;;;12.36;45.52
30110;BME280;14965;50.660;13.226;2023-05-18T13:04:32;95723.94;;;12.44;47.27
30110;BME280;14965;50.660;13.226;2023-05-18T13:06:58;95717.63;;;12.44;46.50
30110;BME280;14965;50.660;13.226;2023-05-18T13:09:24;95727.00;;;12.50;47.11
30110;BME280;14965;50.660;13.226;2023-05-18T13:11:51;95720.06;;;12.42;45.65
30110;BME280;14965;50.660;13.226;2023-05-18T13:14:20;95719.66;;;12.24;46.81
30110;BME280;14965;50.660;13.226;2023-05-18T13:16:50;95716.69;;;12.14;47.02
30110;BME280;14965;50.660;13.226;2023-05-18T13:19:18;95714.75;;;12.31;47.09
30110;BME280;14965;50.660;13.226;2023-05-18T13:21:45;95721.91;;;12.65;47.93
30110;BME280;14965;50.660;13.226;2023-05-18T13:24:12;95719.72;;;12.56;45.38
30110;BME280;14965;50.660;13.226;2023-05-18T13:26:38;95722.47;;;12.40;46.21
30110;BME280;14965;50.660;13.226;2023-05-18T13:29:05;95718.09;;;12.23;44.79
30110;BME280;14965;50.660;13.226;2023-05-18T13:31:31;95709.97;;;12.32;46.31
30110;BME280;14965;50.660;13.226;2023-05-18T13:33:57;95714.94;;;12.40;45.78
30110;BME280;14965;50.660;13.226;2023-05-18T13:36:25;95726.81;;;12.57;46.29
30110;BME280;14965;50.660;13.226;2023-05-18T13:38:51;95739.38;;;12.62;46.15